Time;durP1;ratioP1;P1;durP2;ratioP2;P2;SDS_P1;SDS_P2;PMS_P1;PMS_P2;Temp;Humidity;BMP_temperature;BMP_pressure;BME280_temperature;BME280_humidity;BME280_pressure;Samples;Min_cycle;Max_cycle;Signal;HPM_P1;HPM_P2
2023/10/31 00:00:00;;;;;;;39.95;37.95;;;;;;;8.04;100.00;101181.56;5064697;28;20051;-74
2023/10/31 00:02:28;;;;;;;40.60;38.60;;;;;;;8.55;100.00;101178.34;5070788;28;20524;-75
2023/10/31 00:04:56;;;;;;;66.32;62.90;;;;;;;8.39;100.00;101177.50;5056139;28;20045;-74
2023/10/31 00:07:23;;;;;;;47.63;45.22;;;;;;;7.97;100.00;101178.81;5057442;28;20431;-74
2023/10/31 00:09:50;;;;;;;35.38;33.67;;;;;;;8.57;100.00;101173.69;5051615;28;20451;-74
2023/10/31 00:12:17;;;;;;;39.45;37.65;;;;;;;8.57;100.00;101174.50;5051651;28;20052;-74
2023/10/31 00:14:44;;;;;;;48.67;46.47;;;;;;;8.63;100.00;101163.19;5054140;28;20045;-74
2023/10/31 00:17:14;;;;;;;37.08;35.35;;;;;;;8.43;100.00;101149.66;5051368;28;20053;-74
2023/10/31 00:19:44;;;;;;;35.60;33.90;;;;;;;8.33;100.00;101162.31;5052858;28;20049;-74
2023/10/31 00:22:13;;;;;;;30.20;28.60;;;;;;;8.17;100.00;101162.44;5059392;28;20482;-75
2023/10/31 00:24:44;;;;;;;30.10;28.50;;;;;;;8.14;100.00;101165.44;5059786;28;20092;-74
2023/10/31 00:27:10;;;;;;;33.22;31.58;;;;;;;8.34;100.00;101158.66;5051707;28;20045;-74
2023/10/31 00:29:43;;;;;;;29.83;28.33;;;;;;;8.22;100.00;101152.16;5053253;28;20052;-74
2023/10/31 00:32:23;;;;;;;25.92;24.67;;;;;;;8.31;100.00;101147.59;5051437;28;20405;-74
2023/10/31 00:34:50;;;;;;;31.70;30.20;;;;;;;8.06;100.00;101147.84;5058697;28;20045;-74
2023/10/31 00:37:17;;;;;;;34.03;32.42;;;;;;;8.10;100.00;101140.34;5068820;28;20061;-74
2023/10/31 00:39:44;;;;;;;30.98;29.48;;;;;;;8.39;100.00;101140.44;5058368;28;20041;-77
2023/10/31 00:42:13;;;;;;;29.55;28.05;;;;;;;8.53;100.00;101144.09;5055774;28;21268;-73
2023/10/31 00:44:40;;;;;;;38.95;37.08;;;;;;;8.37;100.00;101139.75;5052671;28;20041;-77
2023/10/31 00:47:14;;;;;;;36.08;34.28;;;;;;;8.43;100.00;101135.59;5054150;28;20119;-77
2023/10/31 00:49:42;;;;;;;38.47;36.58;;;;;;;8.36;100.00;101139.97;5051224;28;20049;-74
2023/10/31 00:52:09;;;;;;;40.00;38.10;;;;;;;8.34;100.00;101134.00;5054969;28;20178;-77
2023/10/31 00:54:37;;;;;;;37.03;35.25;;;;;;;8.23;100.00;101122.06;5057679;28;20052;-74
2023/10/31 00:57:10;;;;;;;32.55;31.05;;;;;;;8.34;100.00;101134.81;5052995;28;20049;-75
2023/10/31 00:59:37;;;;;;;32.70;31.20;;;;;;;8.19;100.00;101133.97;5058542;28;20550;-77
2023/10/31 01:02:06;;;;;;;64.20;61.00;;;;;;;8.18;100.00;101124.41;5050981;28;20049;-77
2023/10/31 01:04:33;;;;;;;33.55;31.85;;;;;;;8.00;100.00;101124.75;5054994;28;20052;-77
2023/10/31 01:07:01;;;;;;;33.53;31.83;;;;;;;7.34;100.00;101130.50;5061583;28;20444;-77
2023/10/31 01:09:55;;;;;;;28.52;26.95;;;;;;;7.72;100.00;101127.13;5051306;28;20061;-77
2023/10/31 01:12:22;;;;;;;31.20;29.60;;;;;;;7.79;100.00;101126.22;5057198;28;20447;-78
2023/10/31 01:14:49;;;;;;;29.33;27.75;;;;;;;8.00;100.00;101124.75;5064087;28;20075;-78
2023/10/31 01:17:33;;;;;;;31.50;29.77;;;;;;;8.09;100.00;101128.94;5051961;28;20052;-77
2023/10/31 01:19:59;;;;;;;29.23;27.52;;;;;;;8.08;100.00;101126.47;5055070;28;20463;-77
2023/10/31 01:22:37;;;;;;;32.15;30.35;;;;;;;8.12;100.00;101123.31;5059703;28;20052;-77
2023/10/31 01:25:05;;;;;;;88.43;83.82;;;;;;;8.10;100.00;101124.47;5063023;28;20132;-77
2023/10/31 01:27:32;;;;;;;108.20;102.70;;;;;;;7.70;100.00;101121.19;5052779;28;20079;-77
2023/10/31 01:29:59;;;;;;;123.38;117.15;;;;;;;7.82;100.00;101121.59;5067831;28;20052;-77
2023/10/31 01:32:28;;;;;;;117.07;111.18;;;;;;;7.74;100.00;101122.47;5055385;28;20049;-78
2023/10/31 01:34:55;;;;;;;115.38;109.55;;;;;;;7.88;100.00;101116.41;5063986;28;20436;-77
2023/10/31 01:37:21;;;;;;;117.25;111.40;;;;;;;7.97;100.00;101114.50;5059578;28;20049;-77
2023/10/31 01:39:50;;;;;;;110.93;105.43;;;;;;;7.93;100.00;101107.94;5050628;28;20056;-78
2023/10/31 01:42:17;;;;;;;104.57;99.45;;;;;;;7.47;100.00;101107.94;5052061;28;20492;-74
2023/10/31 01:44:44;;;;;;;97.55;92.63;;;;;;;7.72;100.00;101117.38;5062052;28;20053;-77
2023/10/31 01:47:12;;;;;;;103.40;98.30;;;;;;;7.84;100.00;101115.13;5050145;28;20053;-73
2023/10/31 01:50:01;;;;;;;41.95;39.75;;;;;;;8.06;100.00;101118.72;5065814;28;20059;-74
2023/10/31 01:52:32;;;;;;;39.50;37.40;;;;;;;7.79;100.00;101115.66;5063878;28;20057;-74
2023/10/31 01:55:02;;;;;;;36.72;34.83;;;;;;;7.85;100.00;101114.13;5050302;28;20056;-74
2023/10/31 01:57:29;;;;;;;33.92;32.13;;;;;;;7.91;100.00;101110.75;5060490;28;20052;-73
2023/10/31 02:00:04;;;;;;;28.80;27.20;;;;;;;8.10;100.00;101121.84;5065987;28;20500;-77
2023/10/31 02:02:35;;;;;;;29.45;27.83;;;;;;;8.01;100.00;101110.50;5057772;28;20066;-78
2023/10/31 02:05:02;;;;;;;33.88;32.08;;;;;;;8.01;100.00;101108.66;5058627;28;20057;-77
2023/10/31 02:07:29;;;;;;;38.17;36.22;;;;;;;7.80;100.00;101109.34;5050573;28;20406;-78
2023/10/31 02:09:56;;;;;;;39.47;37.47;;;;;;;7.52;100.00;101108.25;5056940;28;20049;-77
2023/10/31 02:12:34;;;;;;;34.22;32.42;;;;;;;7.79;100.00;101106.91;5065869;28;20059;-78
2023/10/31 02:15:11;;;;;;;30.88;29.17;;;;;;;7.80;100.00;101112.00;5063793;28;20504;-77
2023/10/31 02:17:38;;;;;;;33.15;31.35;;;;;;;7.90;100.00;101105.66;5063300;28;20085;-77
2023/10/31 02:20:06;;;;;;;34.35;32.55;;;;;;;7.58;100.00;101096.97;5058776;28;20053;-77
2023/10/31 02:22:34;;;;;;;35.58;33.67;;;;;;;7.58;100.00;101100.44;5051663;28;20056;-77
2023/10/31 02:25:01;;;;;;;33.90;32.10;;;;;;;7.69;100.00;101096.56;5051981;28;20044;-77
2023/10/31 02:27:28;;;;;;;32.05;30.35;;;;;;;7.72;100.00;101087.47;5051917;28;20048;-77
2023/10/31 02:29:55;;;;;;;35.55;33.65;;;;;;;7.70;100.00;101097.38;5064100;28;20044;-77
2023/10/31 02:32:22;;;;;;;36.00;34.10;;;;;;;7.73;100.00;101089.09;5061082;28;20049;-77
2023/10/31 02:34:49;;;;;;;35.30;33.50;;;;;;;7.64;100.00;101090.16;5051430;28;20045;-77
2023/10/31 02:37:30;;;;;;;44.78;42.50;;;;;;;7.65;100.00;101097.09;5061893;28;20562;-77
2023/10/31 02:39:59;;;;;;;30.70;28.98;;;;;;;7.75;100.00;101095.03;5069582;28;20044;-78
2023/10/31 02:42:26;;;;;;;38.92;37.10;;;;;;;7.56;100.00;101093.69;5065700;28;20045;-77
2023/10/31 02:44:53;;;;;;;36.15;34.25;;;;;;;7.52;100.00;101092.41;5061113;28;20052;-77
2023/10/31 02:47:20;;;;;;;39.45;37.65;;;;;;;7.48;100.00;101091.13;5049431;28;20041;-77
2023/10/31 02:49:47;;;;;;;36.88;35.08;;;;;;;7.54;100.00;101090.41;5064577;28;20053;-77
2023/10/31 02:52:14;;;;;;;37.65;35.75;;;;;;;7.60;100.00;101087.06;5060725;28;20064;-77
2023/10/31 02:54:40;;;;;;;32.08;30.27;;;;;;;7.53;100.00;101099.31;5063119;28;20054;-77
2023/10/31 02:57:09;;;;;;;35.45;33.45;;;;;;;7.34;100.00;101090.84;5074055;28;20077;-78
2023/10/31 02:59:39;;;;;;;41.78;39.58;;;;;;;7.25;100.00;101091.09;5091529;28;20415;-74
2023/10/31 03:02:06;;;;;;;45.63;43.22;;;;;;;7.37;100.00;101091.53;5075526;28;20052;-74
2023/10/31 03:04:33;;;;;;;40.40;38.20;;;;;;;7.50;100.00;101089.94;5071986;28;20071;-77
2023/10/31 03:06:59;;;;;;;105.55;100.25;;;;;;;7.42;100.00;101091.81;5071913;28;20053;-77
2023/10/31 03:09:26;;;;;;;110.57;105.22;;;;;;;7.45;100.00;101099.41;5068282;28;20056;-74
2023/10/31 03:11:54;;;;;;;112.65;107.05;;;;;;;7.12;100.00;101094.31;5056220;28;20044;-74
2023/10/31 03:14:22;;;;;;;72.18;68.43;;;;;;;7.27;100.00;101095.22;5074935;28;20040;-74
2023/10/31 03:16:51;;;;;;;50.55;47.75;;;;;;;7.43;100.00;101099.56;5070241;28;20047;-73
2023/10/31 03:19:18;;;;;;;73.90;70.10;;;;;;;7.47;100.00;101094.75;5067867;28;20079;-74
2023/10/31 03:21:46;;;;;;;72.43;68.68;;;;;;;7.63;100.00;101097.28;5068010;28;20103;-74
2023/10/31 03:24:17;;;;;;;66.22;62.72;;;;;;;7.56;100.00;101088.41;5066452;28;20044;-74
2023/10/31 03:26:44;;;;;;;70.47;66.77;;;;;;;7.40;100.00;101089.34;5053230;28;20139;-74
2023/10/31 03:29:11;;;;;;;72.80;68.90;;;;;;;7.31;100.00;101088.56;5068070;28;20257;-73
2023/10/31 03:31:40;;;;;;;77.68;73.57;;;;;;;7.45;100.00;101091.47;5066919;28;20053;-74
2023/10/31 03:34:07;;;;;;;92.32;87.53;;;;;;;7.29;100.00;101087.09;5061307;28;20091;-77
2023/10/31 03:37:02;;;;;;;94.10;89.10;;;;;;;6.96;100.00;101094.38;5066219;28;20064;-77
2023/10/31 03:39:48;;;;;;;88.00;83.38;;;;;;;6.88;100.00;101082.88;5070974;28;20056;-77
2023/10/31 03:42:16;;;;;;;75.70;71.68;;;;;;;6.98;100.00;101081.84;5070532;28;20073;-77
2023/10/31 03:44:43;;;;;;;80.18;76.18;;;;;;;6.54;100.00;101085.84;5064499;28;20048;-77
2023/10/31 03:47:13;;;;;;;80.22;76.07;;;;;;;6.95;100.00;101085.66;5066716;28;20827;-78
2023/10/31 03:49:41;;;;;;;41.25;38.75;;;;;;;7.08;100.00;101080.63;5068218;28;20049;-78
2023/10/31 03:52:16;;;;;;;43.03;40.33;;;;;;;7.06;100.00;101074.69;5065085;28;20044;-77
2023/10/31 03:54:43;;;;;;;39.67;37.28;;;;;;;7.09;100.00;101076.16;5069026;28;20513;-77
2023/10/31 03:57:18;;;;;;;75.97;71.97;;;;;;;7.09;100.00;101071.72;5062472;28;20056;-77
2023/10/31 03:59:45;;;;;;;93.80;89.10;;;;;;;7.18;100.00;101075.13;5063919;28;20044;-77
2023/10/31 04:02:13;;;;;;;89.20;84.70;;;;;;;7.11;100.00;101069.72;5060932;28;20111;-77
2023/10/31 04:04:40;;;;;;;80.82;76.63;;;;;;;7.11;100.00;101076.84;5069452;28;20051;-77
2023/10/31 04:07:07;;;;;;;68.50;64.90;;;;;;;6.97;100.00;101075.75;5056036;28;20044;-77
2023/10/31 04:09:56;;;;;;;67.07;63.38;;;;;;;6.94;100.00;101073.44;5052620;28;20053;-77
2023/10/31 04:12:23;;;;;;;67.18;63.67;;;;;;;6.99;100.00;101079.03;5067105;28;20511;-77
2023/10/31 04:14:52;;;;;;;93.53;88.90;;;;;;;6.92;100.00;101077.25;5068521;28;20044;-77
2023/10/31 04:17:20;;;;;;;86.63;82.20;;;;;;;7.13;100.00;101072.19;5057037;28;20049;-77
2023/10/31 04:19:47;;;;;;;82.00;77.60;;;;;;;6.95;100.00;101087.47;5052654;28;20083;-77
2023/10/31 04:22:21;;;;;;;60.75;57.40;;;;;;;6.54;100.00;101074.47;5069104;28;20443;-77
2023/10/31 04:24:48;;;;;;;58.78;55.58;;;;;;;6.89;100.00;101081.88;5060401;28;20505;-77
2023/10/31 04:27:14;;;;;;;80.25;76.15;;;;;;;7.02;100.00;101075.19;5068141;28;20059;-74
2023/10/31 04:29:49;;;;;;;39.92;37.58;;;;;;;7.00;100.00;101080.66;5053840;28;20049;-74
2023/10/31 04:32:16;;;;;;;34.10;32.00;;;;;;;6.89;100.00;101083.69;5052066;28;20048;-74
2023/10/31 04:34:44;;;;;;;38.08;35.78;;;;;;;6.70;100.00;101090.22;5053135;28;20052;-74
2023/10/31 04:37:11;;;;;;;38.30;36.10;;;;;;;6.73;100.00;101091.69;5064859;28;20052;-74
2023/10/31 04:39:40;;;;;;;39.47;37.47;;;;;;;6.57;100.00;101084.69;5057918;28;20059;-73
2023/10/31 04:42:07;;;;;;;38.25;36.25;;;;;;;6.49;100.00;101090.78;5066692;28;20504;-73
2023/10/31 04:44:33;;;;;;;39.13;36.92;;;;;;;6.59;100.00;101082.66;5069572;28;20040;-74
2023/10/31 04:47:24;;;;;;;29.02;27.33;;;;;;;6.58;100.00;101096.88;5055232;28;20065;-74
2023/10/31 04:50:02;;;;;;;28.48;26.95;;;;;;;6.35;100.00;101097.56;5068742;28;20052;-74
2023/10/31 04:52:34;;;;;;;30.58;28.92;;;;;;;6.68;100.00;101091.38;5055542;28;20052;-74
2023/10/31 04:55:01;;;;;;;32.70;30.92;;;;;;;6.73;100.00;101087.25;5058911;28;20044;-77
2023/10/31 04:57:31;;;;;;;19.33;18.23;;;;;;;6.96;100.00;101104.94;5071272;28;20056;-74
2023/10/31 04:59:59;;;;;;;22.65;21.08;;;;;;;7.05;100.00;101099.47;5066917;28;20057;-74
2023/10/31 05:02:25;;;;;;;20.00;18.80;;;;;;;7.06;100.00;101097.66;5052992;28;20095;-77
2023/10/31 05:04:52;;;;;;;20.48;19.25;;;;;;;6.61;100.00;101099.16;5050924;28;20045;-74
2023/10/31 05:07:29;;;;;;;21.33;20.02;;;;;;;6.77;100.00;101099.09;5050961;28;20060;-74
2023/10/31 05:09:56;;;;;;;20.52;19.42;;;;;;;6.92;100.00;101101.00;5064483;28;20055;-74
2023/10/31 05:12:26;;;;;;;19.90;18.80;;;;;;;6.95;100.00;101101.50;5066371;28;20049;-74
2023/10/31 05:15:09;;;;;;;20.50;19.10;;;;;;;7.22;100.00;101104.66;5064455;28;20044;-74
2023/10/31 05:17:43;;;;;;;19.38;18.20;;;;;;;6.85;100.00;101101.72;5064109;28;20440;-74
2023/10/31 05:20:11;;;;;;;19.23;17.92;;;;;;;7.10;100.00;101105.03;5059416;28;20049;-74
2023/10/31 05:22:51;;;;;;;20.23;19.13;;;;;;;7.47;100.00;101105.31;5052490;28;20044;-74
2023/10/31 05:25:18;;;;;;;21.00;19.80;;;;;;;7.52;100.00;101100.31;5058176;28;20045;-74
2023/10/31 05:27:45;;;;;;;21.48;20.17;;;;;;;7.73;100.00;101092.56;5063735;28;20052;-77
2023/10/31 05:30:15;;;;;;;21.95;20.65;;;;;;;8.10;100.00;101098.03;5062399;28;20044;-77
2023/10/31 05:32:42;;;;;;;22.80;21.40;;;;;;;8.29;100.00;101089.56;5069938;28;20098;-74
2023/10/31 05:35:11;;;;;;;22.02;20.73;;;;;;;8.27;100.00;101092.38;5064147;28;20102;-77
2023/10/31 05:37:37;;;;;;;22.30;20.90;;;;;;;8.52;100.00;101083.38;5070221;28;20526;-78
2023/10/31 05:40:07;;;;;;;23.05;21.65;;;;;;;8.62;100.00;101087.41;5066184;28;20503;-74
2023/10/31 05:42:37;;;;;;;32.90;31.10;;;;;;;8.85;100.00;101089.09;5070011;28;20056;-77
2023/10/31 05:45:07;;;;;;;33.92;32.10;;;;;;;9.10;100.00;101084.28;5059039;28;20048;-75
2023/10/31 05:47:34;;;;;;;34.40;32.50;;;;;;;9.19;100.00;101093.78;5062296;28;20056;-76
2023/10/31 05:50:00;;;;;;;30.85;29.05;;;;;;;9.76;100.00;101089.44;5053863;28;20144;-75
2023/10/31 05:52:29;;;;;;;31.60;29.50;;;;;;;9.66;100.00;101092.41;5065358;28;20413;-74
2023/10/31 05:54:56;;;;;;;39.75;29.25;;;;;;;9.86;100.00;101090.75;5064332;28;20803;-76
2023/10/31 05:57:25;;;;;;;36.35;34.15;;;;;;;10.07;100.00;101089.88;5054290;28;20048;-76
2023/10/31 05:59:52;;;;;;;39.30;36.90;;;;;;;10.52;100.00;101093.03;5069793;28;20423;-74
2023/10/31 06:02:39;;;;;;;25.25;23.25;;;;;;;10.82;100.00;101086.66;5058742;28;20060;-77
2023/10/31 06:05:06;;;;;;;20.88;19.58;;;;;;;11.16;100.00;101091.88;5055094;28;20083;-77
2023/10/31 06:07:33;;;;;;;23.80;22.20;;;;;;;11.44;100.00;101081.09;5067175;28;20052;-77
2023/10/31 06:10:00;;;;;;;20.58;19.27;;;;;;;12.17;100.00;101092.81;5055860;28;20610;-77
2023/10/31 06:12:28;;;;;;;21.08;19.77;;;;;;;12.27;100.00;101088.69;5052140;28;20049;-77
2023/10/31 06:14:57;;;;;;;21.48;20.17;;;;;;;12.58;100.00;101087.97;5070251;28;20055;-77
2023/10/31 06:17:24;;;;;;;21.95;20.55;;;;;;;13.10;100.00;101088.00;5067770;28;20432;-76
2023/10/31 06:19:51;;;;;;;22.40;21.00;;;;;;;13.20;100.00;101076.84;5063239;28;20496;-77
2023/10/31 06:22:18;;;;;;;21.92;20.52;;;;;;;13.23;100.00;101073.75;5063322;28;20439;-77
2023/10/31 06:24:45;;;;;;;20.95;19.75;;;;;;;13.75;100.00;101074.44;5053660;28;20436;-78
2023/10/31 06:27:12;;;;;;;20.80;19.60;;;;;;;14.32;100.00;101067.13;5058990;28;20117;-77
2023/10/31 06:29:40;;;;;;;21.40;20.10;;;;;;;14.33;100.00;101071.41;5061922;28;20476;-78
2023/10/31 06:32:07;;;;;;;21.17;19.95;;;;;;;14.86;100.00;101062.00;5058232;28;20049;-74
2023/10/31 06:34:42;;;;;;;22.60;21.20;;;;;;;14.96;100.00;101064.94;5062285;28;20075;-74
2023/10/31 06:37:09;;;;;;;22.90;21.40;;;;;;;15.60;100.00;101067.09;5064490;28;20045;-74
2023/10/31 06:39:36;;;;;;;22.70;21.30;;;;;;;15.64;100.00;101068.25;5054607;28;20052;-74
2023/10/31 06:42:05;;;;;;;22.60;21.30;;;;;;;15.91;100.00;101058.75;5057598;28;20061;-78
2023/10/31 06:44:32;;;;;;;23.42;21.40;;;;;;;16.50;100.00;101064.06;5053281;28;20045;-78
2023/10/31 06:47:00;;;;;;;22.13;20.83;;;;;;;16.70;100.00;101058.28;5053017;28;20601;-78
2023/10/31 06:49:53;;;;;;;24.33;22.85;;;;;;;16.23;100.00;101066.44;5054213;28;20052;-78
2023/10/31 06:52:28;;;;;;;21.95;20.85;;;;;;;16.76;100.00;101064.59;5045413;28;20059;-78
2023/10/31 06:55:05;;;;;;;22.65;21.45;;;;;;;17.12;100.00;101058.03;5067465;28;20045;-78
2023/10/31 06:57:41;;;;;;;24.05;22.75;;;;;;;17.70;100.00;101053.38;5053301;28;20053;-78
2023/10/31 07:00:09;;;;;;;24.58;23.17;;;;;;;17.94;100.00;101056.72;5065196;28;20052;-78
2023/10/31 07:02:38;;;;;;;26.83;25.42;;;;;;;17.99;100.00;101064.84;5060079;28;20068;-77
2023/10/31 07:05:05;;;;;;;28.15;26.63;;;;;;;18.55;100.00;101057.56;5061005;28;20436;-78
2023/10/31 07:07:32;;;;;;;28.35;26.85;;;;;;;18.70;100.00;101049.66;5061309;28;20068;-78
2023/10/31 07:09:59;;;;;;;25.77;24.17;;;;;;;19.33;100.00;101047.34;5061468;28;20500;-78
2023/10/31 07:12:26;;;;;;;26.88;25.30;;;;;;;18.80;100.00;101058.94;5071066;28;20045;-78
2023/10/31 07:14:53;;;;;;;28.73;26.92;;;;;;;18.03;100.00;101061.44;5067209;28;20048;-78
2023/10/31 07:17:22;;;;;;;27.77;26.17;;;;;;;19.31;100.00;101054.88;5060439;28;20087;-78
2023/10/31 07:19:50;;;;;;;26.67;25.08;;;;;;;19.50;100.00;101055.31;5065243;28;20049;-78
2023/10/31 07:22:22;;;;;;;25.10;23.60;;;;;;;19.93;100.00;101058.88;5062722;28;20733;-78
2023/10/31 07:24:49;;;;;;;25.60;24.10;;;;;;;19.57;100.00;101057.78;5067279;28;20497;-78
2023/10/31 07:27:15;;;;;;;28.05;26.40;;;;;;;20.27;100.00;101055.81;5061713;28;20435;-78
2023/10/31 07:29:46;;;;;;;28.85;27.15;;;;;;;20.99;100.00;101046.91;5071494;28;20135;-78
2023/10/31 07:32:14;;;;;;;29.45;27.85;;;;;;;20.89;100.00;101046.91;5059611;28;20048;-78
2023/10/31 07:34:41;;;;;;;30.08;28.58;;;;;;;21.47;100.00;101038.63;5063457;28;20428;-78
2023/10/31 07:37:28;;;;;;;30.02;28.42;;;;;;;21.70;100.00;101043.47;5061011;28;20132;-78
2023/10/31 07:40:05;;;;;;;28.60;27.00;;;;;;;21.56;100.00;101044.28;5057659;28;20048;-78
2023/10/31 07:42:32;;;;;;;27.30;25.50;;;;;;;22.15;100.00;101047.16;5053176;28;20049;-78
2023/10/31 07:44:59;;;;;;;25.40;23.95;;;;;;;22.63;100.00;101033.19;5051780;28;20044;-78
2023/10/31 07:47:27;;;;;;;25.40;23.70;;;;;;;22.71;100.00;101035.31;5053154;28;20049;-78
2023/10/31 07:49:54;;;;;;;25.13;23.63;;;;;;;22.99;100.00;101019.47;5062359;28;20048;-78
2023/10/31 07:52:21;;;;;;;25.35;23.75;;;;;;;23.68;100.00;101018.34;5067788;28;20053;-74
2023/10/31 07:54:50;;;;;;;27.38;25.60;;;;;;;24.07;100.00;101008.47;5057068;28;20055;-75
2023/10/31 07:57:23;;;;;;;28.15;26.45;;;;;;;24.42;100.00;101005.34;5062188;28;20437;-75
2023/10/31 07:59:50;;;;;;;29.35;27.55;;;;;;;24.75;100.00;100996.47;5061492;28;20049;-78
2023/10/31 08:02:16;;;;;;;25.98;24.35;;;;;;;24.68;100.00;101003.06;5062722;28;20048;-75
2023/10/31 08:04:44;;;;;;;29.00;26.90;;;;;;;24.77;94.16;101003.22;5054873;28;20051;-78
2023/10/31 08:07:11;;;;;;;27.70;25.90;;;;;;;24.98;94.17;100994.75;5061761;28;20560;-78
2023/10/31 08:10:03;;;;;;;31.35;29.45;;;;;;;25.63;88.60;100988.50;5066932;28;20504;-75
2023/10/31 08:12:31;;;;;;;50.13;29.13;;;;;;;25.79;87.08;100979.78;5062208;28;20428;-78
2023/10/31 08:14:59;;;;;;;28.27;26.27;;;;;;;25.67;82.36;100976.75;5063952;28;20045;-78
2023/10/31 08:17:27;;;;;;;31.30;29.20;;;;;;;26.21;79.57;100972.41;5067602;28;20110;-78
2023/10/31 08:19:54;;;;;;;31.40;29.30;;;;;;;26.45;74.68;100974.09;5051947;28;20063;-76
2023/10/31 08:22:21;;;;;;;32.22;30.13;;;;;;;26.69;74.81;100960.22;5061587;28;20085;-75
2023/10/31 08:24:48;;;;;;;27.88;26.08;;;;;;;26.56;73.86;100961.06;5052191;28;21129;-75
2023/10/31 08:27:15;;;;;;;29.42;27.33;;;;;;;26.31;73.83;100955.06;5056062;28;20056;-78
2023/10/31 08:29:43;;;;;;;27.00;25.10;;;;;;;26.41;73.52;100946.66;5067251;28;20492;-74
2023/10/31 08:32:10;;;;;;;24.58;22.77;;;;;;;25.74;79.61;100940.97;5068587;28;20055;-74
2023/10/31 08:34:37;;;;;;;25.83;24.02;;;;;;;27.15;72.76;100929.94;5060493;28;20083;-77
2023/10/31 08:37:07;;;;;;;26.67;24.85;;;;;;;27.55;66.57;100923.72;5062309;28;20059;-78
2023/10/31 08:39:33;;;;;;;26.02;24.30;;;;;;;27.35;70.33;100922.34;5056707;28;20080;-78
2023/10/31 08:42:00;;;;;;;26.13;24.33;;;;;;;27.68;67.62;100927.44;5059936;28;20067;-78
2023/10/31 08:44:28;;;;;;;27.30;25.30;;;;;;;28.33;65.12;100923.91;5060410;28;20052;-74
2023/10/31 08:46:56;;;;;;;27.25;25.25;;;;;;;26.49;67.70;100916.00;5058770;28;20088;-75
2023/10/31 08:49:23;;;;;;;25.17;23.48;;;;;;;27.67;63.60;100912.19;5050186;28;20064;-78
2023/10/31 08:52:01;;;;;;;26.27;24.58;;;;;;;28.42;61.78;100905.63;5050023;28;20083;-74
2023/10/31 08:54:29;;;;;;;26.55;24.75;;;;;;;28.92;58.86;100896.88;5056235;28;20091;-75
2023/10/31 08:56:56;;;;;;;24.92;23.02;;;;;;;29.28;56.67;100897.59;5058340;28;20582;-78
2023/10/31 08:59:28;;;;;;;26.20;24.50;;;;;;;29.59;54.15;100887.16;5061738;28;20441;-78
2023/10/31 09:02:15;;;;;;;27.05;25.33;;;;;;;29.03;55.80;100878.22;5059089;28;20106;-79
2023/10/31 09:04:42;;;;;;;27.10;24.77;;;;;;;29.15;54.20;100863.88;5060811;28;20124;-79
2023/10/31 09:07:32;;;;;;;26.38;24.58;;;;;;;28.44;60.80;100853.38;5062784;28;20055;-78
2023/10/31 09:10:06;;;;;;;27.10;24.67;;;;;;;29.44;54.26;100849.41;5064443;28;20444;-79
2023/10/31 09:12:55;;;;;;;25.55;23.85;;;;;;;29.74;52.47;100835.72;5068021;28;20497;-78
2023/10/31 09:15:22;;;;;;;27.95;26.05;;;;;;;28.35;55.07;100836.19;5053498;28;20488;-79
2023/10/31 09:17:50;;;;;;;27.90;25.80;;;;;;;28.86;57.31;100826.31;5056479;28;20102;-78
2023/10/31 09:20:37;;;;;;;26.25;24.55;;;;;;;28.89;57.41;100820.19;5069411;28;20053;-78
2023/10/31 09:23:29;;;;;;;25.55;23.55;;;;;;;29.60;54.25;100817.63;5052187;28;20511;-79
2023/10/31 09:26:08;;;;;;;26.65;24.60;;;;;;;29.11;54.95;100819.16;5054834;28;20049;-78
2023/10/31 09:28:49;;;;;;;27.95;25.75;;;;;;;28.85;55.71;100802.84;5050114;28;20118;-78
2023/10/31 09:31:19;;;;;;;;;;;;;;;28.99;57.64;100806.97;5052670;28;20053;-78
2023/10/31 09:33:51;;;;;;;26.65;24.85;;;;;;;27.85;65.30;100804.72;5056140;28;19967;-78
2023/10/31 09:36:17;;;;;;;26.98;25.17;;;;;;;28.85;57.83;100800.13;5057859;28;20650;-78
2023/10/31 09:38:44;;;;;;;27.40;25.48;;;;;;;26.63;57.61;100798.03;5062705;28;20041;-78
2023/10/31 09:41:14;;;;;;;30.98;29.17;;;;;;;29.88;54.83;100779.59;5065143;28;20048;-79
2023/10/31 09:43:42;;;;;;;29.83;28.13;;;;;;;29.21;59.80;100778.59;5066232;28;20052;-78
2023/10/31 09:46:10;;;;;;;30.98;29.08;;;;;;;30.46;50.09;100773.44;5055400;28;20474;-78
2023/10/31 09:48:39;;;;;;;45.40;41.75;;;;;;;28.85;53.75;100779.03;5055126;28;20106;-78
2023/10/31 09:51:12;;;;;;;49.78;46.72;;;;;;;27.18;62.20;100771.22;5057402;28;20057;-78
2023/10/31 09:53:45;;;;;;;52.20;49.28;;;;;;;30.56;53.17;100762.84;5058734;28;20048;-75
2023/10/31 09:56:12;;;;;;;43.47;40.83;;;;;;;30.97;47.29;100760.28;5062454;28;20045;-75
2023/10/31 09:58:41;;;;;;;42.85;40.35;;;;;;;31.28;46.94;100762.44;5057537;28;20048;-78
2023/10/31 10:01:15;;;;;;;38.63;36.42;;;;;;;30.90;48.86;100755.38;5059792;28;20650;-78
2023/10/31 10:03:44;;;;;;;40.13;37.63;;;;;;;31.77;44.80;100745.84;5050665;28;20443;-75
2023/10/31 10:06:13;;;;;;;44.13;41.13;;;;;;;32.36;43.60;100736.13;5055449;28;20099;-75
2023/10/31 10:08:53;;;;;;;44.35;41.55;;;;;;;30.32;51.06;100732.69;5054313;28;20493;-75
2023/10/31 10:11:29;;;;;;;39.85;37.13;;;;;;;32.80;42.26;100736.03;5068437;28;20530;-75
2023/10/31 10:14:10;;;;;;;49.33;46.20;;;;;;;32.76;41.12;100724.97;5063035;28;20052;-75
2023/10/31 10:16:38;;;;;;;49.25;46.00;;;;;;;31.89;41.25;100715.66;5060397;28;20080;-75
2023/10/31 10:19:21;;;;;;;45.03;42.03;;;;;;;30.25;45.12;100716.78;5064680;28;20055;-74
2023/10/31 10:21:51;;;;;;;44.47;41.58;;;;;;;28.35;49.81;100714.09;5059937;28;20133;-75
2023/10/31 10:24:43;;;;;;;35.47;32.97;;;;;;;30.45;46.27;100711.56;5061982;28;20064;-75
2023/10/31 10:27:21;;;;;;;41.20;38.30;;;;;;;31.63;42.27;100715.28;5058372;28;20048;-75
2023/10/31 10:29:58;;;;;;;39.33;36.63;;;;;;;31.65;40.76;100711.03;5055290;28;20049;-78
2023/10/31 10:32:36;;;;;;;41.55;38.83;;;;;;;32.13;38.96;100700.19;5061862;28;20049;-78
2023/10/31 10:35:09;;;;;;;42.15;39.55;;;;;;;29.84;42.54;100695.75;5055694;28;20140;-75
2023/10/31 10:37:39;;;;;;;38.75;36.25;;;;;;;30.29;45.99;100695.81;5060175;28;20049;-78
2023/10/31 10:40:17;;;;;;;39.67;37.00;;;;;;;28.50;52.24;100691.75;5058077;28;20056;-78
2023/10/31 10:42:47;;;;;;;41.83;39.22;;;;;;;28.82;55.29;100688.72;5062679;28;20056;-78
2023/10/31 10:45:15;;;;;;;40.00;37.20;;;;;;;30.98;47.68;100680.41;5062818;28;20159;-78
2023/10/31 10:47:46;;;;;;;40.78;38.08;;;;;;;30.69;47.65;100675.16;5054049;28;20048;-78
2023/10/31 10:50:20;;;;;;;46.58;43.55;;;;;;;31.38;46.86;100674.19;5051058;28;20045;-78
2023/10/31 10:53:16;;;;;;;45.40;42.50;;;;;;;30.39;46.56;100663.63;5060969;28;20060;-78
2023/10/31 10:55:47;;;;;;;45.42;42.65;;;;;;;29.36;48.53;100667.81;5048624;28;20045;-80
2023/10/31 10:58:37;;;;;;;43.47;40.85;;;;;;;28.68;49.05;100658.88;5048756;28;20048;-78
2023/10/31 11:01:06;;;;;;;59.05;46.10;;;;;;;29.67;47.30;100647.44;5053727;28;20872;-77
2023/10/31 11:03:38;;;;;;;43.80;40.95;;;;;;;27.76;50.58;100651.91;5055875;28;20045;-75
2023/10/31 11:06:05;;;;;;;;;;;;;;;31.14;44.77;100644.06;5055067;28;20053;-75
2023/10/31 11:08:36;;;;;;;41.95;39.55;;;;;;;30.62;47.26;100642.03;5055090;28;20398;-74
2023/10/31 11:11:05;;;;;;;40.22;37.83;;;;;;;28.86;47.89;100646.72;5057702;28;20511;-77
2023/10/31 11:13:34;;;;;;;44.65;41.92;;;;;;;27.03;58.03;100632.63;5057584;28;20531;-77
2023/10/31 11:16:13;;;;;;;46.70;43.83;;;;;;;29.26;51.02;100631.84;5059256;28;20047;-77
2023/10/31 11:18:41;;;;;;;42.65;40.05;;;;;;;31.03;42.31;100614.38;5061135;28;20048;-77
2023/10/31 11:21:07;;;;;;;41.60;39.00;;;;;;;31.41;40.70;100609.59;5063903;28;20486;-77